createdAt,value
2018-04-27T00:00:43.236Z,76.20
2018-04-27T00:03:10.755Z,76.40
2018-04-27T00:05:38.325Z,76.50
2018-04-27T00:08:05.786Z,74.70
2018-04-27T00:10:33.274Z,73.80
2018-04-27T00:13:00.763Z,76.00
2018-04-27T00:15:28.976Z,74.90
2018-04-27T00:17:56.472Z,74.80
2018-04-27T00:20:23.987Z,75.20
2018-04-27T00:22:51.468Z,73.80
2018-04-27T00:25:18.953Z,73.50
2018-04-27T00:27:46.432Z,73.40
2018-04-27T00:30:14.714Z,73.10
2018-04-27T00:32:42.977Z,73.10
2018-04-27T00:35:10.437Z,73.10
2018-04-27T00:37:38.689Z,73.70
2018-04-27T00:40:06.185Z,73.70
2018-04-27T00:42:34.413Z,75.60
2018-04-27T00:45:01.878Z,75.60
2018-04-27T00:47:29.397Z,75.50
2018-04-27T00:49:56.861Z,76.10
2018-04-27T00:52:24.348Z,76.30
2018-04-27T00:54:51.885Z,77.20
2018-04-27T00:57:19.356Z,76.10
2018-04-27T00:59:46.816Z,77.00
2018-04-27T01:02:14.305Z,75.70
2018-04-27T01:04:41.830Z,75.40
2018-04-27T01:07:09.326Z,75.10
2018-04-27T01:09:36.802Z,76.90
2018-04-27T01:12:05.053Z,76.30
2018-04-27T01:14:32.529Z,76.30
2018-04-27T01:16:59.977Z,75.00
2018-04-27T01:19:27.481Z,75.70
2018-04-27T01:21:54.964Z,75.50
2018-04-27T01:24:22.453Z,75.90
2018-04-27T01:26:49.910Z,76.90
2018-04-27T01:29:17.415Z,74.80
2018-04-27T01:31:44.880Z,75.30
2018-04-27T01:34:12.345Z,76.00
2018-04-27T01:36:39.844Z,77.20
2018-04-27T01:39:07.301Z,76.60
2018-04-27T01:41:34.796Z,76.90
2018-04-27T01:44:02.376Z,76.60
2018-04-27T01:46:29.856Z,76.90
2018-04-27T01:48:57.307Z,77.30
2018-04-27T01:51:24.793Z,77.20
2018-04-27T01:53:52.265Z,77.90
2018-04-27T01:56:19.753Z,77.70
2018-04-27T01:58:47.218Z,79.50
2018-04-27T02:01:14.707Z,77.70
2018-04-27T02:03:42.158Z,77.20
2018-04-27T02:06:09.668Z,76.20
2018-04-27T02:08:37.909Z,76.70
2018-04-27T02:11:05.364Z,76.70
2018-04-27T02:13:32.856Z,76.90
2018-04-27T02:16:01.093Z,77.70
2018-04-27T02:18:28.569Z,77.70
2018-04-27T02:20:56.023Z,78.20
2018-04-27T02:23:23.513Z,78.10
2018-04-27T02:25:51.727Z,78.70
2018-04-27T02:28:19.221Z,78.60
2018-04-27T02:30:46.691Z,78.80
2018-04-27T02:33:14.191Z,78.90
2018-04-27T02:35:41.653Z,78.70
2018-04-27T02:38:09.148Z,78.90
2018-04-27T02:40:36.601Z,79.80
2018-04-27T02:43:04.070Z,79.60
2018-04-27T02:45:31.561Z,79.40
2018-04-27T02:47:59.784Z,79.50
2018-04-27T02:50:27.268Z,79.50
2018-04-27T02:52:54.729Z,79.70
2018-04-27T02:55:22.189Z,79.90
2018-04-27T02:57:49.692Z,80.10
2018-04-27T03:00:17.159Z,80.00
2018-04-27T03:02:44.658Z,79.70
2018-04-27T03:05:12.140Z,79.80
2018-04-27T03:07:40.362Z,80.60
2018-04-27T03:10:07.859Z,80.50
2018-04-27T03:12:35.340Z,80.50
2018-04-27T03:15:03.589Z,80.80
2018-04-27T03:17:31.071Z,80.80
2018-04-27T03:19:59.291Z,80.70
2018-04-27T03:22:26.777Z,80.70
2018-04-27T03:24:54.245Z,80.90
2018-04-27T03:27:21.748Z,80.90
2018-04-27T03:29:49.208Z,81.20
2018-04-27T03:32:16.693Z,81.40
2018-04-27T03:34:44.149Z,81.30
2018-04-27T03:37:11.665Z,81.30
2018-04-27T03:39:39.136Z,81.20
2018-04-27T03:42:06.593Z,81.60
2018-04-27T03:44:34.082Z,81.80
2018-04-27T03:47:01.526Z,82.20
2018-04-27T03:49:29.018Z,81.20
2018-04-27T03:51:56.507Z,81.70
2018-04-27T03:54:23.986Z,82.20
2018-04-27T03:56:51.437Z,81.60
2018-04-27T03:59:30.985Z,80.40
2018-04-27T04:02:10.362Z,81.40
2018-04-27T04:04:49.804Z,80.30
2018-04-27T04:07:17.272Z,80.80
2018-04-27T04:09:44.761Z,80.80
2018-04-27T04:12:12.989Z,81.00
2018-04-27T04:14:40.489Z,81.00
2018-04-27T04:17:08.718Z,81.00
2018-04-27T04:19:36.206Z,80.90
2018-04-27T04:22:05.190Z,81.50
2018-04-27T04:24:32.649Z,81.50
2018-04-27T04:27:00.140Z,82.40
2018-04-27T04:29:28.376Z,81.50
2018-04-27T04:31:55.877Z,81.50
2018-04-27T04:34:23.354Z,82.10
2018-04-27T04:36:50.858Z,82.00
2018-04-27T04:39:18.317Z,81.60
2018-04-27T04:41:45.796Z,82.30
2018-04-27T04:44:14.055Z,82.20
2018-04-27T04:46:41.546Z,82.20
2018-04-27T04:49:09.765Z,82.10
2018-04-27T04:51:37.248Z,82.10
2018-04-27T04:54:04.730Z,81.70
2018-04-27T04:56:32.985Z,82.50
2018-04-27T04:59:01.216Z,82.80
2018-04-27T05:01:28.724Z,82.80
2018-04-27T05:03:56.188Z,81.90
2018-04-27T05:06:23.694Z,81.40
2018-04-27T05:08:51.240Z,80.40
2018-04-27T05:11:18.741Z,80.10
2018-04-27T05:13:46.201Z,80.10
2018-04-27T05:16:13.677Z,79.30
2018-04-27T05:18:58.849Z,79.60
2018-04-27T05:21:26.317Z,79.40
2018-04-27T05:23:53.799Z,79.20
2018-04-27T05:26:21.246Z,79.20
2018-04-27T05:28:49.516Z,78.40
2018-04-27T05:31:25.237Z,78.60
2018-04-27T05:33:52.748Z,78.50
2018-04-27T05:36:20.220Z,79.90
2018-04-27T05:38:47.680Z,79.00
2018-04-27T05:41:15.167Z,78.00
2018-04-27T05:43:42.657Z,78.80
2018-04-27T05:46:10.913Z,77.10
2018-04-27T05:48:38.395Z,77.10
2018-04-27T05:51:06.652Z,77.80
2018-04-27T05:53:34.168Z,77.80
2018-04-27T05:56:01.621Z,77.50
2018-04-27T05:58:29.111Z,74.00
2018-04-27T06:00:56.581Z,74.60
2018-04-27T06:03:24.056Z,74.80
2018-04-27T06:05:52.292Z,75.40
2018-04-27T06:08:19.824Z,75.40
2018-04-27T06:10:47.281Z,75.40
2018-04-27T06:13:14.750Z,74.20
2018-04-27T06:15:42.240Z,72.70
2018-04-27T06:18:09.696Z,72.90
2018-04-27T06:20:37.184Z,72.20
2018-04-27T06:23:05.430Z,70.60
2018-04-27T06:25:32.913Z,70.60
2018-04-27T06:28:00.385Z,60.10
2018-04-27T06:30:28.647Z,60.90
2018-04-27T06:32:56.101Z,60.90
2018-04-27T06:35:23.603Z,55.30
2018-04-27T06:37:51.052Z,53.40
2018-04-27T06:40:18.540Z,60.30
2018-04-27T06:42:46.009Z,51.30
2018-04-27T06:45:13.607Z,41.80
2018-04-27T06:47:41.084Z,42.70
2018-04-27T06:50:08.545Z,48.10
2018-04-27T06:52:36.033Z,45.60
2018-04-27T06:55:03.533Z,41.90
2018-04-27T06:57:31.828Z,34.80
2018-04-27T06:59:59.308Z,36.80
2018-04-27T07:02:26.841Z,33.90
2018-04-27T07:04:55.172Z,28.20
2018-04-27T07:07:22.668Z,28.20
2018-04-27T07:09:50.910Z,29.20
2018-04-27T07:12:18.410Z,29.20
2018-04-27T07:14:46.677Z,27.00
2018-04-27T07:17:14.190Z,26.80
2018-04-27T07:19:41.673Z,26.60
2018-04-27T07:22:09.148Z,25.30
2018-04-27T07:24:36.633Z,26.60
2018-04-27T07:27:04.138Z,24.20
2018-04-27T07:29:31.646Z,25.60
2018-04-27T07:31:59.898Z,23.00
2018-04-27T07:34:27.390Z,23.00
2018-04-27T07:36:55.676Z,21.00
2018-04-27T07:39:23.253Z,21.00
2018-04-27T07:41:50.732Z,20.30
2018-04-27T07:44:18.213Z,19.50
2018-04-27T07:46:45.697Z,20.30
2018-04-27T07:49:13.966Z,19.40
2018-04-27T07:51:42.240Z,18.90
2018-04-27T07:54:09.756Z,18.90
2018-04-27T07:56:37.232Z,19.00
2018-04-27T07:59:04.761Z,19.20
2018-04-27T08:01:32.276Z,19.90
2018-04-27T08:04:00.541Z,21.00
2018-04-27T08:06:28.014Z,21.00
2018-04-27T08:08:56.342Z,20.70
2018-04-27T08:11:24.638Z,20.80
2018-04-27T08:13:52.812Z,19.80
2018-04-27T08:16:20.328Z,20.00
2018-04-27T08:18:47.852Z,21.10
2018-04-27T08:21:16.112Z,21.10
2018-04-27T08:23:44.374Z,20.80
2018-04-27T08:26:11.840Z,20.60
2018-04-27T08:28:39.359Z,19.70
2018-04-27T08:31:06.849Z,20.10
2018-04-27T08:33:34.349Z,20.20
2018-04-27T08:36:02.576Z,21.50
2018-04-27T08:38:30.088Z,21.50
2018-04-27T08:40:58.347Z,21.00
2018-04-27T08:43:25.822Z,21.10
2018-04-27T08:45:54.059Z,21.60
2018-04-27T08:48:21.577Z,21.60
2018-04-27T08:50:49.073Z,22.40
2018-04-27T08:53:16.560Z,21.90
2018-04-27T08:55:44.078Z,21.70
2018-04-27T08:58:11.569Z,22.70
2018-04-27T09:00:40.553Z,23.10
2018-04-27T09:03:08.054Z,23.10
2018-04-27T09:05:36.276Z,24.10
2018-04-27T09:08:03.772Z,24.10
2018-04-27T09:10:31.250Z,23.50
2018-04-27T09:12:59.481Z,24.30
2018-04-27T09:15:26.969Z,24.30
2018-04-27T09:17:54.433Z,24.60
2018-04-27T09:20:21.907Z,25.20
2018-04-27T09:22:49.411Z,25.30
2018-04-27T09:25:18.124Z,24.60
2018-04-27T09:27:45.627Z,25.20
2018-04-27T09:30:13.110Z,25.80
2018-04-27T09:32:40.569Z,25.60
2018-04-27T09:35:08.076Z,25.40
2018-04-27T09:37:36.308Z,25.90
2018-04-27T09:40:03.789Z,25.90
2018-04-27T09:42:31.248Z,26.10
2018-04-27T09:44:58.724Z,24.70
2018-04-27T09:47:26.993Z,24.70
2018-04-27T09:49:54.465Z,24.70
2018-04-27T09:52:22.713Z,24.30
2018-04-27T09:54:50.176Z,24.30
2018-04-27T09:57:17.669Z,23.50
2018-04-27T09:59:45.893Z,23.60
2018-04-27T10:02:13.388Z,23.60
2018-04-27T10:04:41.626Z,24.30
2018-04-27T10:07:09.116Z,24.30
2018-04-27T10:09:38.089Z,26.20
2018-04-27T10:12:05.581Z,26.20
2018-04-27T10:14:33.845Z,25.10
2018-04-27T10:17:02.100Z,25.30
2018-04-27T10:19:31.518Z,25.20
2018-04-27T10:21:59.030Z,25.10
2018-04-27T10:24:26.521Z,25.80
2018-04-27T10:26:54.017Z,24.70
2018-04-27T10:29:22.281Z,25.40
2018-04-27T10:31:49.747Z,25.40
2018-04-27T10:34:18.027Z,26.20
2018-04-27T10:36:46.277Z,26.40
2018-04-27T10:39:13.773Z,26.40
2018-04-27T10:41:42.011Z,26.30
2018-04-27T10:44:09.515Z,26.30
2018-04-27T10:46:37.081Z,25.60
2018-04-27T10:49:04.569Z,26.10
2018-04-27T10:51:32.041Z,26.60
2018-04-27T10:53:59.542Z,27.00
2018-04-27T10:56:27.031Z,27.10
2018-04-27T10:58:54.498Z,26.70
2018-04-27T11:01:22.002Z,27.50
2018-04-27T11:03:49.465Z,27.10
2018-04-27T11:06:17.725Z,27.50
2018-04-27T11:08:45.179Z,27.50
2018-04-27T11:11:12.660Z,27.60
2018-04-27T11:13:40.920Z,27.10
2018-04-27T11:16:08.404Z,27.10
2018-04-27T11:18:36.636Z,26.80
2018-04-27T11:21:04.112Z,26.80
2018-04-27T11:23:32.392Z,28.40
2018-04-27T11:26:00.670Z,27.30
2018-04-27T11:28:28.120Z,27.30
2018-04-27T11:30:55.577Z,27.50
2018-04-27T11:33:24.618Z,27.70
2018-04-27T11:35:52.096Z,27.70
2018-04-27T11:38:19.593Z,28.00
2018-04-27T11:40:47.819Z,28.40
2018-04-27T11:43:15.313Z,28.40
2018-04-27T11:45:42.800Z,27.90
2018-04-27T11:48:11.048Z,28.50
2018-04-27T11:50:38.545Z,28.50
2018-04-27T11:53:06.782Z,29.30
2018-04-27T11:55:34.337Z,29.30
2018-04-27T11:58:01.805Z,28.00
2018-04-27T12:00:29.340Z,28.40
2018-04-27T12:02:56.805Z,28.00
2018-04-27T12:05:24.297Z,29.10
2018-04-27T12:07:52.537Z,29.10
2018-04-27T12:10:20.044Z,29.10
2018-04-27T12:12:48.297Z,29.60
2018-04-27T12:15:15.790Z,29.60
2018-04-27T12:17:44.040Z,28.10
2018-04-27T12:20:11.543Z,28.10
2018-04-27T12:22:39.023Z,28.20
2018-04-27T12:25:06.539Z,28.60
2018-04-27T12:27:34.801Z,29.40
2018-04-27T12:30:02.297Z,29.40
2018-04-27T12:32:29.807Z,29.40
2018-04-27T12:34:57.275Z,29.00
2018-04-27T12:37:25.560Z,28.80
2018-04-27T12:39:53.794Z,27.90
2018-04-27T12:42:21.402Z,27.90
2018-04-27T12:44:49.639Z,28.40
2018-04-27T12:47:17.154Z,28.40
2018-04-27T12:49:44.631Z,28.20
2018-04-27T12:52:12.290Z,29.00
2018-04-27T12:54:39.672Z,28.70
2018-04-27T12:57:08.275Z,28.50
2018-04-27T12:59:35.773Z,27.80
2018-04-27T13:02:03.280Z,27.40
2018-04-27T13:04:30.788Z,28.10
2018-04-27T13:06:59.017Z,27.90
2018-04-27T13:09:26.513Z,27.90
2018-04-27T13:11:54.004Z,27.70
2018-04-27T13:14:21.517Z,28.10
2018-04-27T13:16:48.977Z,27.40
2018-04-27T13:19:17.252Z,28.30
2018-04-27T13:21:45.500Z,27.80
2018-04-27T13:24:13.000Z,27.80
2018-04-27T13:26:41.344Z,28.60
2018-04-27T13:29:09.650Z,28.90
2018-04-27T13:31:37.877Z,28.20
2018-04-27T13:34:05.378Z,28.20
2018-04-27T13:36:33.625Z,28.30
2018-04-27T13:39:01.117Z,28.30
2018-04-27T13:41:29.348Z,29.50
2018-04-27T13:43:56.872Z,29.40
2018-04-27T13:46:24.346Z,28.40
2018-04-27T13:48:51.829Z,29.30
2018-04-27T13:51:19.293Z,29.40
2018-04-27T13:53:46.809Z,29.30
2018-04-27T13:56:15.111Z,28.50
2018-04-27T13:58:42.573Z,28.90
2018-04-27T14:01:10.081Z,28.80
2018-04-27T14:03:38.331Z,28.60
2018-04-27T14:06:05.866Z,28.60
2018-04-27T14:08:33.338Z,29.10
2018-04-27T14:11:00.854Z,29.30
2018-04-27T14:13:28.363Z,28.70
2018-04-27T14:15:55.882Z,28.40
2018-04-27T14:18:23.356Z,28.00
2018-04-27T14:20:50.882Z,28.80
2018-04-27T14:23:19.125Z,29.10
2018-04-27T14:25:46.614Z,29.10
2018-04-27T14:28:14.870Z,28.30
2018-04-27T14:30:42.336Z,28.10
2018-04-27T14:33:09.814Z,28.20
2018-04-27T14:35:37.282Z,28.70
2018-04-27T14:38:04.780Z,28.00
2018-04-27T14:40:32.273Z,27.60
2018-04-27T14:43:00.558Z,27.10
2018-04-27T14:45:28.812Z,27.00
2018-04-27T14:47:56.323Z,27.00
2018-04-27T14:50:23.837Z,27.30
2018-04-27T14:52:51.326Z,27.20
2018-04-27T14:55:18.798Z,28.00
2018-04-27T14:57:46.316Z,27.40
2018-04-27T15:00:13.794Z,27.80
2018-04-27T15:02:41.306Z,28.30
2018-04-27T15:05:08.773Z,27.90
2018-04-27T15:07:36.279Z,27.50
2018-04-27T15:10:03.785Z,27.00
2018-04-27T15:12:31.276Z,27.60
2018-04-27T15:15:00.188Z,27.40
2018-04-27T15:17:28.414Z,27.40
2018-04-27T15:19:55.922Z,27.40
2018-04-27T15:22:23.419Z,27.20
2018-04-27T15:24:50.876Z,26.60
2018-04-27T15:27:19.023Z,26.80
2018-04-27T15:29:46.512Z,26.70
2018-04-27T15:32:14.048Z,26.60
2018-04-27T15:34:41.510Z,26.40
2018-04-27T15:37:09.001Z,26.10
2018-04-27T15:39:36.482Z,25.90
2018-04-27T15:42:04.752Z,26.00
2018-04-27T15:44:32.218Z,26.00
2018-04-27T15:47:00.476Z,26.30
2018-04-27T15:49:27.960Z,26.30
2018-04-27T15:51:56.236Z,26.20
2018-04-27T15:54:24.512Z,25.80
2018-04-27T15:56:52.812Z,26.10
2018-04-27T15:59:20.297Z,26.20
2018-04-27T16:01:47.809Z,26.10
2018-04-27T16:04:15.331Z,25.90
2018-04-27T16:06:42.821Z,26.10
2018-04-27T16:09:11.082Z,26.20
2018-04-27T16:11:38.569Z,26.00
2018-04-27T16:14:06.824Z,26.20
2018-04-27T16:16:35.192Z,26.00
2018-04-27T16:19:04.191Z,26.20
2018-04-27T16:21:31.690Z,26.20
2018-04-27T16:23:59.837Z,25.90
2018-04-27T16:26:29.630Z,26.00
2018-04-27T16:28:57.092Z,26.00
2018-04-27T16:31:25.351Z,26.30
2018-04-27T16:33:52.856Z,26.20
2018-04-27T16:36:21.087Z,25.80
2018-04-27T16:38:48.584Z,25.80
2018-04-27T16:41:16.880Z,26.00
2018-04-27T16:43:44.347Z,26.00
2018-04-27T16:46:11.846Z,26.10
2018-04-27T16:48:39.348Z,26.10
2018-04-27T16:51:07.616Z,26.50
2018-04-27T16:53:35.922Z,26.30
2018-04-27T16:56:03.326Z,26.30
2018-04-27T16:58:31.571Z,26.40
2018-04-27T17:00:59.085Z,26.20
2018-04-27T17:03:27.309Z,26.20
2018-04-27T17:05:54.805Z,26.10
2018-04-27T17:08:22.277Z,26.60
2018-04-27T17:10:50.576Z,26.40
2018-04-27T17:13:18.833Z,26.40
2018-04-27T17:15:47.101Z,26.20
2018-04-27T17:18:15.334Z,26.30
2018-04-27T17:20:43.304Z,26.10
2018-04-27T17:23:10.784Z,26.20
2018-04-27T17:25:38.253Z,26.30
2018-04-27T17:28:05.825Z,26.50
2018-04-27T17:30:33.302Z,26.30
2018-04-27T17:33:01.570Z,26.30
2018-04-27T17:35:29.797Z,26.70
2018-04-27T17:37:57.309Z,26.70
2018-04-27T17:40:25.611Z,26.90
2018-04-27T17:42:53.036Z,27.00
2018-04-27T17:45:21.309Z,27.50
2018-04-27T17:47:49.609Z,27.80
2018-04-27T17:50:17.143Z,27.80
2018-04-27T17:52:45.419Z,28.60
2018-04-27T17:55:12.873Z,28.40
2018-04-27T17:57:40.373Z,28.50
2018-04-27T18:00:07.840Z,28.60
2018-04-27T18:02:35.359Z,29.00
2018-04-27T18:05:03.596Z,31.20
2018-04-27T18:07:31.183Z,31.10
2018-04-27T18:09:58.621Z,31.80
2018-04-27T18:12:26.113Z,32.00
2018-04-27T18:14:54.361Z,31.90
2018-04-27T18:17:21.889Z,31.90
2018-04-27T18:19:49.374Z,31.90
2018-04-27T18:22:16.845Z,32.00
2018-04-27T18:24:44.360Z,31.70
2018-04-27T18:27:12.345Z,32.40
2018-04-27T18:29:39.872Z,31.60
2018-04-27T18:32:08.136Z,31.30
2018-04-27T18:34:36.410Z,31.50
2018-04-27T18:37:04.673Z,31.10
2018-04-27T18:39:32.129Z,31.00
2018-04-27T18:41:59.634Z,31.10
2018-04-27T18:44:27.175Z,31.50
2018-04-27T18:46:54.617Z,31.00
2018-04-27T18:49:22.869Z,31.10
2018-04-27T18:51:50.408Z,31.10
2018-04-27T18:54:17.908Z,31.70
2018-04-27T18:56:45.426Z,32.60
2018-04-27T18:59:12.888Z,32.30
2018-04-27T19:01:40.360Z,32.90
2018-04-27T19:04:07.832Z,33.20
2018-04-27T19:06:35.373Z,33.60
2018-04-27T19:09:02.842Z,33.40
2018-04-27T19:11:30.369Z,32.80
2018-04-27T19:13:57.824Z,33.00
2018-04-27T19:16:25.297Z,33.60
2018-04-27T19:18:57.585Z,33.60
2018-04-27T19:21:25.073Z,34.20
2018-04-27T19:23:53.344Z,34.70
2018-04-27T19:26:20.840Z,34.70
2018-04-27T19:28:48.339Z,35.10
2018-04-27T19:31:15.811Z,35.10
2018-04-27T19:33:43.302Z,35.70
2018-04-27T19:36:11.580Z,36.70
2018-04-27T19:38:39.103Z,36.70
2018-04-27T19:41:06.593Z,37.00
2018-04-27T19:43:34.093Z,35.30
2018-04-27T19:46:01.577Z,36.10
2018-04-27T19:48:30.574Z,35.40
2018-04-27T19:50:58.050Z,35.40
2018-04-27T19:53:26.316Z,35.10
2018-04-27T19:55:54.554Z,36.20
2018-04-27T19:58:22.069Z,36.20
2018-04-27T20:00:50.373Z,37.50
2018-04-27T20:03:17.842Z,37.50
2018-04-27T20:05:48.250Z,39.00
2018-04-27T20:08:15.752Z,42.30
2018-04-27T20:10:44.146Z,42.10
2018-04-27T20:13:21.651Z,44.90
2018-04-27T20:15:54.741Z,52.60
2018-04-27T20:18:22.247Z,52.40
2018-04-27T20:20:50.633Z,53.40
2018-04-27T20:23:19.002Z,51.70
2018-04-27T20:25:47.221Z,58.10
2018-04-27T20:28:14.701Z,57.00
2018-04-27T20:30:42.957Z,59.30
2018-04-27T20:33:11.260Z,59.10
2018-04-27T20:35:39.513Z,60.20
2018-04-27T20:38:15.528Z,60.20
2018-04-27T20:40:43.018Z,60.40
2018-04-27T20:43:12.285Z,60.70
2018-04-27T20:45:39.782Z,59.70
2018-04-27T20:48:13.172Z,61.20
2018-04-27T20:50:40.662Z,60.70
2018-04-27T20:53:08.899Z,61.20
2018-04-27T20:55:36.396Z,61.20
2018-04-27T20:58:04.657Z,61.90
2018-04-27T21:00:32.180Z,61.90
2018-04-27T21:02:59.756Z,62.10
2018-04-27T21:05:27.288Z,62.60
2018-04-27T21:07:54.790Z,62.30
2018-04-27T21:10:22.259Z,63.10
2018-04-27T21:12:50.719Z,62.70
2018-04-27T21:15:18.164Z,63.40
2018-04-27T21:17:45.657Z,63.70
2018-04-27T21:20:15.521Z,63.40
2018-04-27T21:22:43.041Z,63.40
2018-04-27T21:25:12.085Z,63.60
2018-04-27T21:27:47.098Z,63.60
2018-04-27T21:30:14.644Z,63.10
2018-04-27T21:32:42.038Z,63.50
2018-04-27T21:35:09.529Z,63.60
2018-04-27T21:37:37.010Z,63.70
2018-04-27T21:40:05.261Z,64.00
2018-04-27T21:42:32.743Z,63.90
2018-04-27T21:45:00.984Z,64.70
2018-04-27T21:47:40.216Z,64.70
2018-04-27T21:50:09.578Z,65.00
2018-04-27T21:52:43.701Z,64.90
2018-04-27T21:55:11.180Z,64.10
2018-04-27T21:57:45.219Z,64.40
2018-04-27T22:00:12.738Z,65.80
2018-04-27T22:02:43.006Z,65.10
2018-04-27T22:05:30.914Z,66.00
2018-04-27T22:07:58.402Z,65.60
2018-04-27T22:10:25.900Z,65.50
2018-04-27T22:12:53.364Z,65.70
2018-04-27T22:15:20.860Z,64.60
2018-04-27T22:17:49.261Z,65.40
2018-04-27T22:23:16.624Z,66.20
2018-04-27T22:25:44.118Z,66.30
2018-04-27T22:28:12.493Z,65.60
2018-04-27T22:30:42.435Z,66.40
2018-04-27T22:33:31.397Z,67.10
2018-04-27T22:36:14.839Z,67.30
2018-04-27T22:38:53.136Z,67.70
2018-04-27T22:41:20.624Z,67.20
2018-04-27T22:43:49.037Z,67.40
2018-04-27T22:46:20.175Z,67.10
2018-04-27T22:49:00.148Z,67.10
2018-04-27T22:51:38.002Z,68.20
2018-04-27T22:54:21.099Z,68.20
2018-04-27T22:56:52.009Z,69.30
2018-04-27T22:59:22.625Z,69.50
2018-04-27T23:01:51.081Z,69.50
2018-04-27T23:04:18.544Z,69.60
2018-04-27T23:06:46.032Z,68.40
2018-04-27T23:09:14.277Z,68.80
2018-04-27T23:11:41.855Z,68.80
2018-04-27T23:14:10.080Z,69.60
2018-04-27T23:16:37.560Z,69.10
2018-04-27T23:19:05.068Z,70.00
2018-04-27T23:24:29.940Z,69.80
2018-04-27T23:26:57.413Z,69.90
2018-04-27T23:29:24.917Z,69.90
2018-04-27T23:31:52.402Z,70.00
2018-04-27T23:34:34.776Z,69.50
2018-04-27T23:37:02.251Z,70.00
2018-04-27T23:39:29.741Z,69.90
2018-04-27T23:41:57.191Z,70.30
2018-04-27T23:44:24.660Z,70.50
2018-04-27T23:46:52.149Z,70.60
2018-04-27T23:49:21.459Z,71.40
2018-04-27T23:51:49.718Z,71.20
2018-04-27T23:54:17.190Z,71.20
2018-04-27T23:56:46.263Z,70.80
2018-04-27T23:59:14.530Z,70.80
